createdAt,value
2018-07-10T00:02:35.324Z,3.20
2018-07-10T00:07:49.808Z,2.63
2018-07-10T00:12:25.780Z,2.67
2018-07-10T00:14:54.511Z,2.70
2018-07-10T00:17:23.040Z,2.80
2018-07-10T00:19:51.536Z,2.90
2018-07-10T00:22:20.297Z,2.67
2018-07-10T00:24:48.810Z,2.80
2018-07-10T00:27:17.294Z,2.50
2018-07-10T00:29:46.057Z,2.37
2018-07-10T00:32:14.539Z,2.17
2018-07-10T00:34:43.167Z,2.70
2018-07-10T00:37:11.621Z,2.40
2018-07-10T00:39:40.128Z,2.20
2018-07-10T00:42:08.782Z,1.90
2018-07-10T00:44:37.310Z,2.17
2018-07-10T00:47:06.171Z,2.43
2018-07-10T00:49:34.718Z,2.07
2018-07-10T00:52:03.265Z,1.80
2018-07-10T00:54:31.750Z,1.90
2018-07-10T00:57:00.799Z,1.90
2018-07-10T00:59:29.456Z,2.23
2018-07-10T01:01:58.373Z,2.00
2018-07-10T01:04:27.144Z,2.10
2018-07-10T01:06:55.709Z,2.30
2018-07-10T01:09:24.425Z,1.90
2018-07-10T01:11:53.126Z,2.10
2018-07-10T01:14:21.745Z,2.50
2018-07-10T01:16:50.407Z,2.23
2018-07-10T01:19:18.879Z,2.00
2018-07-10T01:21:49.062Z,2.07
2018-07-10T01:24:18.384Z,2.10
2018-07-10T01:26:49.016Z,2.10
2018-07-10T01:29:23.605Z,2.03
2018-07-10T01:31:53.797Z,2.00
2018-07-10T01:34:22.914Z,1.90
2018-07-10T01:36:52.090Z,2.50
2018-07-10T01:39:20.919Z,2.20
2018-07-10T01:41:49.429Z,2.20
2018-07-10T01:44:17.919Z,2.20
2018-07-10T01:46:46.424Z,2.00
2018-07-10T01:49:15.214Z,2.10
2018-07-10T01:51:43.951Z,1.90
2018-07-10T01:54:12.655Z,1.90
2018-07-10T01:56:41.353Z,2.20
2018-07-10T01:59:10.052Z,2.40
2018-07-10T02:01:38.554Z,2.50
2018-07-10T02:04:07.240Z,2.17
2018-07-10T02:06:35.854Z,2.90
2018-07-10T02:09:05.031Z,2.50
2018-07-10T02:11:33.750Z,2.17
2018-07-10T02:14:02.398Z,2.67
2018-07-10T02:16:30.563Z,2.63
2018-07-10T02:18:59.488Z,2.73
2018-07-10T02:21:28.234Z,2.43
2018-07-10T02:23:56.758Z,2.60
2018-07-10T02:26:27.028Z,3.00
2018-07-10T02:28:56.335Z,2.87
2018-07-10T02:31:25.031Z,2.67
2018-07-10T02:33:54.029Z,3.03
2018-07-10T02:36:23.737Z,2.50
2018-07-10T02:38:57.755Z,2.57
2018-07-10T02:41:26.750Z,2.70
2018-07-10T02:43:59.806Z,2.73
2018-07-10T02:46:29.730Z,2.77
2018-07-10T02:49:05.243Z,2.77
2018-07-10T02:51:35.342Z,2.30
2018-07-10T02:54:04.148Z,2.13
2018-07-10T02:56:32.679Z,2.23
2018-07-10T02:59:02.700Z,3.10
2018-07-10T03:01:31.286Z,2.40
2018-07-10T03:04:00.577Z,2.10
2018-07-10T03:06:29.095Z,2.47
2018-07-10T03:08:57.855Z,2.40
2018-07-10T03:11:26.254Z,2.70
2018-07-10T03:13:55.242Z,3.27
2018-07-10T03:16:23.914Z,2.77
2018-07-10T03:18:52.435Z,2.53
2018-07-10T03:21:21.246Z,2.63
2018-07-10T03:23:50.165Z,2.00
2018-07-10T03:26:18.679Z,2.47
2018-07-10T03:28:47.200Z,2.37
2018-07-10T03:31:15.708Z,2.33
2018-07-10T03:33:44.082Z,2.40
2018-07-10T03:36:12.648Z,2.40
2018-07-10T03:38:41.219Z,2.47
2018-07-10T03:41:09.702Z,2.97
2018-07-10T03:43:38.400Z,2.87
2018-07-10T03:46:06.912Z,2.90
2018-07-10T03:48:35.422Z,2.23
2018-07-10T03:51:03.954Z,2.23
2018-07-10T03:53:32.630Z,2.10
2018-07-10T03:56:01.268Z,2.20
2018-07-10T03:58:29.770Z,2.40
2018-07-10T04:00:59.942Z,2.23
2018-07-10T04:03:32.760Z,2.60
2018-07-10T04:06:02.007Z,2.33
2018-07-10T04:08:30.931Z,2.20
2018-07-10T04:11:00.912Z,2.47
2018-07-10T04:13:29.447Z,2.60
2018-07-10T04:16:01.361Z,2.63
2018-07-10T04:18:31.376Z,2.60
2018-07-10T04:21:14.813Z,2.30
2018-07-10T04:23:44.673Z,2.57
2018-07-10T04:26:19.998Z,2.50
2018-07-10T04:29:22.799Z,2.80
2018-07-10T04:31:56.029Z,2.40
2018-07-10T04:34:25.472Z,2.73
2018-07-10T04:36:59.975Z,2.43
2018-07-10T04:39:28.673Z,2.50
2018-07-10T04:42:07.399Z,2.97
2018-07-10T04:44:36.304Z,2.80
2018-07-10T04:47:18.793Z,3.03
2018-07-10T04:49:52.014Z,3.07
2018-07-10T04:52:27.914Z,2.87
2018-07-10T04:55:10.739Z,3.40
2018-07-10T04:58:19.556Z,4.23
2018-07-10T05:00:50.609Z,3.57
2018-07-10T05:03:19.579Z,3.00
2018-07-10T05:05:48.234Z,3.80
2018-07-10T05:08:19.299Z,3.90
2018-07-10T05:10:48.356Z,3.33
2018-07-10T05:13:17.657Z,3.50
2018-07-10T05:15:50.281Z,3.23
2018-07-10T05:18:18.771Z,3.27
2018-07-10T05:20:47.714Z,3.67
2018-07-10T05:23:17.803Z,3.73
2018-07-10T05:25:49.994Z,3.27
2018-07-10T05:28:18.864Z,3.10
2018-07-10T05:30:47.806Z,3.17
2018-07-10T05:33:16.885Z,3.10
2018-07-10T05:35:45.625Z,2.80
2018-07-10T05:38:14.106Z,2.90
2018-07-10T05:40:42.826Z,2.87
2018-07-10T05:43:13.683Z,2.80
2018-07-10T05:45:42.936Z,2.53
2018-07-10T05:48:11.662Z,2.20
2018-07-10T05:50:40.499Z,2.57
2018-07-10T05:53:10.540Z,2.23
2018-07-10T05:55:45.097Z,2.57
2018-07-10T05:58:13.707Z,2.60
2018-07-10T06:00:42.429Z,2.67
2018-07-10T06:03:11.254Z,2.40
2018-07-10T06:05:40.513Z,2.53
2018-07-10T06:08:09.136Z,2.00
2018-07-10T06:10:37.664Z,2.07
2018-07-10T06:13:06.426Z,1.60
2018-07-10T06:15:35.049Z,1.60
2018-07-10T06:18:03.580Z,1.40
2018-07-10T06:20:32.112Z,1.70
2018-07-10T06:23:00.764Z,1.70
2018-07-10T06:25:33.061Z,1.87
2018-07-10T06:28:08.847Z,1.60
2018-07-10T06:30:38.727Z,1.87
2018-07-10T06:33:25.858Z,1.80
2018-07-10T06:36:01.456Z,1.60
2018-07-10T06:38:30.199Z,1.87
2018-07-10T06:40:58.843Z,1.80
2018-07-10T06:43:47.937Z,1.40
2018-07-10T06:46:18.181Z,2.00
2018-07-10T06:48:49.845Z,1.40
2018-07-10T06:51:19.555Z,1.53
2018-07-10T06:53:50.636Z,1.67
2018-07-10T06:56:27.276Z,1.60
2018-07-10T06:58:56.436Z,1.67
2018-07-10T07:01:25.711Z,1.90
2018-07-10T07:03:57.916Z,1.60
2018-07-10T07:06:26.789Z,1.80
2018-07-10T07:08:56.136Z,1.50
2018-07-10T07:11:25.796Z,1.07
2018-07-10T07:13:54.556Z,1.43
2018-07-10T07:16:23.408Z,1.30
2018-07-10T07:18:52.440Z,1.67
2018-07-10T07:21:21.541Z,1.60
2018-07-10T07:23:50.249Z,2.10
2018-07-10T07:26:18.937Z,1.60
2018-07-10T07:28:47.772Z,1.50
2018-07-10T07:31:16.802Z,1.43
2018-07-10T07:33:45.366Z,1.50
2018-07-10T07:36:14.063Z,1.30
2018-07-10T07:38:42.793Z,1.57
2018-07-10T07:41:11.612Z,1.20
2018-07-10T07:43:40.154Z,1.37
2018-07-10T07:46:08.691Z,1.47
2018-07-10T07:48:37.546Z,1.37
2018-07-10T07:51:06.243Z,1.80
2018-07-10T07:53:34.856Z,1.50
2018-07-10T07:56:03.760Z,1.00
2018-07-10T07:58:32.326Z,1.60
2018-07-10T08:01:01.112Z,1.90
2018-07-10T08:03:29.933Z,1.53
2018-07-10T08:05:58.643Z,2.10
2018-07-10T08:08:31.976Z,1.57
2018-07-10T08:11:00.929Z,1.57
2018-07-10T08:13:30.695Z,1.20
2018-07-10T08:18:35.024Z,1.80
2018-07-10T08:21:03.876Z,1.60
2018-07-10T08:23:33.634Z,1.57
2018-07-10T08:26:02.318Z,1.43
2018-07-10T08:28:31.031Z,1.47
2018-07-10T08:30:59.746Z,1.93
2018-07-10T08:33:28.426Z,1.60
2018-07-10T08:35:57.291Z,1.60
2018-07-10T08:38:42.982Z,2.40
2018-07-10T08:41:20.680Z,2.00
2018-07-10T08:43:49.314Z,2.37
2018-07-10T08:46:18.785Z,2.40
2018-07-10T08:48:48.110Z,2.13
2018-07-10T08:51:17.155Z,2.10
2018-07-10T08:53:46.158Z,2.70
2018-07-10T08:56:14.702Z,2.27
2018-07-10T08:58:43.443Z,2.10
2018-07-10T09:01:12.328Z,2.47
2018-07-10T09:03:40.816Z,2.80
2018-07-10T09:06:09.712Z,2.90
2018-07-10T09:08:38.376Z,3.10
2018-07-10T09:11:07.632Z,2.97
2018-07-10T09:13:36.204Z,2.57
2018-07-10T09:16:05.132Z,2.87
2018-07-10T09:18:33.861Z,2.70
2018-07-10T09:21:02.537Z,2.87
2018-07-10T09:23:31.907Z,2.90
2018-07-10T09:26:01.455Z,3.27
2018-07-10T09:28:34.783Z,3.60
2018-07-10T09:31:04.324Z,3.77
2018-07-10T09:33:32.743Z,3.63
2018-07-10T09:36:02.333Z,4.20
2018-07-10T09:38:31.542Z,5.27
2018-07-10T09:41:00.247Z,4.00
2018-07-10T09:43:29.095Z,3.97
2018-07-10T09:45:59.089Z,4.20
2018-07-10T09:48:28.100Z,4.37
2018-07-10T09:50:56.906Z,6.47
2018-07-10T09:53:25.935Z,6.73
2018-07-10T09:55:54.689Z,8.03
2018-07-10T09:58:23.573Z,7.20
2018-07-10T10:00:59.571Z,7.70
2018-07-10T10:03:28.136Z,9.23
2018-07-10T10:05:57.585Z,9.20
2018-07-10T10:08:26.140Z,11.23
2018-07-10T10:10:54.692Z,9.13
2018-07-10T10:13:23.582Z,10.73
2018-07-10T10:15:52.533Z,11.83
2018-07-10T10:18:21.195Z,13.53
2018-07-10T10:20:50.064Z,13.17
2018-07-10T10:23:18.609Z,13.70
2018-07-10T10:25:50.843Z,11.93
2018-07-10T10:28:23.749Z,12.87
2018-07-10T10:30:52.376Z,15.23
2018-07-10T10:33:20.904Z,16.40
2018-07-10T10:35:49.713Z,17.33
2018-07-10T10:38:23.511Z,17.73
2018-07-10T10:40:52.203Z,15.40
2018-07-10T10:43:20.736Z,15.90
2018-07-10T10:45:49.401Z,17.40
2018-07-10T10:48:18.491Z,15.33
2018-07-10T10:50:50.931Z,12.40
2018-07-10T10:53:20.545Z,11.23
2018-07-10T10:55:49.295Z,9.20
2018-07-10T10:58:19.339Z,8.40
2018-07-10T11:00:47.897Z,8.07
2018-07-10T11:03:16.640Z,9.20
2018-07-10T11:05:45.607Z,8.77
2018-07-10T11:08:14.919Z,10.30
2018-07-10T11:10:45.430Z,11.80
2018-07-10T11:13:15.596Z,14.17
2018-07-10T11:15:45.787Z,12.93
2018-07-10T11:18:27.796Z,12.13
2018-07-10T11:21:02.277Z,10.77
2018-07-10T11:24:05.183Z,9.40
2018-07-10T11:26:35.311Z,9.37
2018-07-10T11:29:05.219Z,8.70
2018-07-10T11:31:33.811Z,8.37
2018-07-10T11:34:02.476Z,8.70
2018-07-10T11:36:31.163Z,7.33
2018-07-10T11:39:02.710Z,8.60
2018-07-10T11:41:32.591Z,8.63
2018-07-10T11:44:05.952Z,10.70
2018-07-10T11:46:34.481Z,9.63
2018-07-10T11:49:03.264Z,10.07
2018-07-10T11:51:32.169Z,9.97
2018-07-10T11:54:01.060Z,10.13
2018-07-10T11:56:30.425Z,10.33
2018-07-10T11:58:59.330Z,9.73
2018-07-10T12:01:28.644Z,11.27
2018-07-10T12:03:57.610Z,9.73
2018-07-10T12:06:27.164Z,9.40
2018-07-10T12:08:57.094Z,9.30
2018-07-10T12:11:28.299Z,9.07
2018-07-10T12:13:56.941Z,8.80
2018-07-10T12:16:25.545Z,8.37
2018-07-10T12:18:54.339Z,7.33
2018-07-10T12:21:23.218Z,8.33
2018-07-10T12:23:51.885Z,7.37
2018-07-10T12:26:21.043Z,8.20
2018-07-10T12:28:49.937Z,7.47
2018-07-10T12:31:18.556Z,7.00
2018-07-10T12:33:47.328Z,7.97
2018-07-10T12:36:16.160Z,6.97
2018-07-10T12:38:45.079Z,6.53
2018-07-10T12:41:13.951Z,6.97
2018-07-10T12:43:42.733Z,6.57
2018-07-10T12:46:11.869Z,6.73
2018-07-10T12:48:40.716Z,7.60
2018-07-10T12:51:09.737Z,6.80
2018-07-10T12:53:38.214Z,7.97
2018-07-10T12:56:07.195Z,8.23
2018-07-10T12:58:40.373Z,7.27
2018-07-10T13:01:09.720Z,8.23
2018-07-10T13:03:38.453Z,8.90
2018-07-10T13:06:07.266Z,9.17
2018-07-10T13:08:36.050Z,9.53
2018-07-10T13:11:04.825Z,9.67
2018-07-10T13:13:33.534Z,11.00
2018-07-10T13:16:02.657Z,9.57
2018-07-10T13:18:33.631Z,10.47
2018-07-10T13:21:02.528Z,11.00
2018-07-10T13:23:31.291Z,9.60
2018-07-10T13:25:59.980Z,9.33
2018-07-10T13:28:28.671Z,9.33
2018-07-10T13:30:57.858Z,10.73
2018-07-10T13:33:26.670Z,10.03
2018-07-10T13:35:55.443Z,9.83
2018-07-10T13:38:24.911Z,11.40
2018-07-10T13:40:57.304Z,10.70
2018-07-10T13:43:26.312Z,11.17
2018-07-10T13:45:55.375Z,12.37
2018-07-10T13:48:24.176Z,11.10
2018-07-10T13:50:52.966Z,21.57
2018-07-10T13:53:21.691Z,11.20
2018-07-10T13:55:50.614Z,9.67
2018-07-10T13:58:22.493Z,8.87
2018-07-10T14:00:54.838Z,9.00
2018-07-10T14:03:23.616Z,8.43
2018-07-10T14:05:52.497Z,9.63
2018-07-10T14:08:21.320Z,9.63
2018-07-10T14:10:50.166Z,8.90
2018-07-10T14:13:19.098Z,8.80
2018-07-10T14:15:47.689Z,9.47
2018-07-10T14:18:16.527Z,9.63
2018-07-10T14:20:55.124Z,8.67
2018-07-10T14:23:23.716Z,9.80
2018-07-10T14:25:53.063Z,9.73
2018-07-10T14:28:21.960Z,10.53
2018-07-10T14:30:50.532Z,10.37
2018-07-10T14:33:20.011Z,10.50
2018-07-10T14:35:48.724Z,9.70
2018-07-10T14:38:20.577Z,8.50
2018-07-10T14:40:50.551Z,8.40
2018-07-10T14:43:21.539Z,9.00
2018-07-10T14:45:51.893Z,7.77
2018-07-10T14:48:20.977Z,7.80
2018-07-10T14:50:52.924Z,8.50
2018-07-10T14:53:21.740Z,8.00
2018-07-10T14:55:50.994Z,8.03
2018-07-10T14:58:19.626Z,8.20
2018-07-10T15:00:48.336Z,8.23
2018-07-10T15:03:17.037Z,8.27
2018-07-10T15:05:45.700Z,8.50
2018-07-10T15:08:14.652Z,9.67
2018-07-10T15:10:43.500Z,9.33
2018-07-10T15:13:12.683Z,9.33
2018-07-10T15:15:41.584Z,8.57
2018-07-10T15:18:15.745Z,9.80
2018-07-10T15:20:44.622Z,9.23
2018-07-10T15:23:13.287Z,9.77
2018-07-10T15:25:41.839Z,10.20
2018-07-10T15:28:10.683Z,10.20
2018-07-10T15:30:39.940Z,11.27
2018-07-10T15:33:08.725Z,11.20
2018-07-10T15:35:37.623Z,11.53
2018-07-10T15:38:06.597Z,10.73
2018-07-10T15:40:35.819Z,11.23
2018-07-10T15:43:04.980Z,12.77
2018-07-10T15:45:33.858Z,12.17
2018-07-10T15:48:03.026Z,11.43
2018-07-10T15:50:31.720Z,12.23
2018-07-10T15:53:00.894Z,12.60
2018-07-10T15:55:29.662Z,12.03
2018-07-10T15:57:58.778Z,13.33
2018-07-10T16:00:27.769Z,12.50
2018-07-10T16:02:56.628Z,14.67
2018-07-10T16:05:25.440Z,13.27
2018-07-10T16:08:03.077Z,13.00
2018-07-10T16:10:31.973Z,13.93
2018-07-10T16:13:00.791Z,13.53
2018-07-10T16:15:29.673Z,12.27
2018-07-10T16:17:58.254Z,11.73
2018-07-10T16:20:27.099Z,12.53
2018-07-10T16:22:56.113Z,13.33
2018-07-10T16:25:30.091Z,13.30
2018-07-10T16:27:59.995Z,13.97
2018-07-10T16:30:29.051Z,14.43
2018-07-10T16:32:57.708Z,13.43
2018-07-10T16:35:28.925Z,12.73
2018-07-10T16:37:58.772Z,13.97
2018-07-10T16:40:27.829Z,12.53
2018-07-10T16:42:57.393Z,11.97
2018-07-10T16:45:30.776Z,11.80
2018-07-10T16:49:10.021Z,10.80
2018-07-10T16:53:52.797Z,10.30
2018-07-10T16:56:21.836Z,12.03
2018-07-10T16:58:51.221Z,12.67
2018-07-10T17:01:19.824Z,13.70
2018-07-10T17:03:48.984Z,10.77
2018-07-10T17:06:18.069Z,12.37
2018-07-10T17:08:46.927Z,12.10
2018-07-10T17:11:15.674Z,11.10
2018-07-10T17:13:44.636Z,13.47
2018-07-10T17:16:13.611Z,12.80
2018-07-10T17:18:43.288Z,13.10
2018-07-10T17:21:12.055Z,13.57
2018-07-10T17:23:41.154Z,14.63
2018-07-10T17:26:09.948Z,13.67
2018-07-10T17:28:38.705Z,11.87
2018-07-10T17:31:07.486Z,12.73
2018-07-10T17:33:36.377Z,12.23
2018-07-10T17:36:05.176Z,12.40
2018-07-10T17:38:34.923Z,12.13
2018-07-10T17:41:04.625Z,11.00
2018-07-10T17:43:33.411Z,11.23
2018-07-10T17:46:02.573Z,10.63
2018-07-10T17:48:31.448Z,12.47
2018-07-10T17:51:00.466Z,13.07
2018-07-10T17:53:29.331Z,11.80
2018-07-10T17:55:58.213Z,10.10
2018-07-10T17:58:28.397Z,11.17
2018-07-10T18:00:57.497Z,11.17
2018-07-10T18:03:26.127Z,8.80
2018-07-10T18:05:54.896Z,10.53
2018-07-10T18:08:24.034Z,9.43
2018-07-10T18:10:52.747Z,9.03
2018-07-10T18:13:21.610Z,9.17
2018-07-10T18:15:50.539Z,9.57
2018-07-10T18:18:19.501Z,10.27
2018-07-10T18:20:48.294Z,11.10
2018-07-10T18:23:17.265Z,10.27
2018-07-10T18:25:46.129Z,8.80
2018-07-10T18:28:14.782Z,8.50
2018-07-10T18:30:43.470Z,7.27
2018-07-10T18:33:12.339Z,8.30
2018-07-10T18:35:41.459Z,7.30
2018-07-10T18:38:10.856Z,8.00
2018-07-10T18:40:39.802Z,7.63
2018-07-10T18:43:08.743Z,8.07
2018-07-10T18:45:37.686Z,7.13
2018-07-10T18:48:06.734Z,7.13
2018-07-10T18:50:35.665Z,7.70
2018-07-10T18:53:04.328Z,8.37
2018-07-10T18:55:33.197Z,6.70
2018-07-10T18:58:13.423Z,6.73
2018-07-10T19:00:52.846Z,6.83
2018-07-10T19:03:21.563Z,6.97
2018-07-10T19:05:54.095Z,7.70
2018-07-10T19:08:22.995Z,7.43
2018-07-10T19:10:52.371Z,7.27
2018-07-10T19:13:21.093Z,8.53
2018-07-10T19:15:50.404Z,9.07
2018-07-10T19:18:19.555Z,8.90
2018-07-10T19:21:56.370Z,9.03
2018-07-10T19:24:26.552Z,8.80
2018-07-10T19:26:55.920Z,8.00
2018-07-10T19:29:46.477Z,9.57
2018-07-10T19:32:15.761Z,9.20
2018-07-10T19:34:45.055Z,9.70
2018-07-10T19:37:13.887Z,8.20
2018-07-10T19:39:43.171Z,9.90
2018-07-10T19:42:11.747Z,10.37
2018-07-10T19:44:40.766Z,9.80
2018-07-10T19:47:09.621Z,10.03
2018-07-10T19:49:38.739Z,10.50
2018-07-10T19:52:07.827Z,9.83
2018-07-10T19:54:36.607Z,10.77
2018-07-10T19:57:05.920Z,11.07
2018-07-10T19:59:34.585Z,10.77
2018-07-10T20:02:04.532Z,11.20
2018-07-10T20:04:38.792Z,11.40
2018-07-10T20:07:31.213Z,12.23
2018-07-10T20:11:04.861Z,14.07
2018-07-10T20:13:41.156Z,12.37
2018-07-10T20:16:16.565Z,12.00
2018-07-10T20:19:57.985Z,11.40
2018-07-10T20:22:51.230Z,12.03
2018-07-10T20:25:40.135Z,12.03
2018-07-10T20:29:23.199Z,12.60
2018-07-10T20:32:02.895Z,13.53
2018-07-10T20:35:36.545Z,13.73
2018-07-10T20:38:05.448Z,14.37
2018-07-10T20:40:37.509Z,14.83
2018-07-10T20:43:12.870Z,14.00
2018-07-10T20:45:46.030Z,15.27
2018-07-10T20:48:43.518Z,15.27
2018-07-10T20:51:13.713Z,14.03
2018-07-10T20:54:16.940Z,14.73
2018-07-10T20:57:24.053Z,16.10
2018-07-10T21:00:03.628Z,16.73
2018-07-10T21:03:41.177Z,16.07
2018-07-10T21:07:15.375Z,14.83
2018-07-10T21:09:52.988Z,14.27
2018-07-10T21:12:30.704Z,13.87
2018-07-10T21:15:08.490Z,14.13
2018-07-10T21:17:58.092Z,13.80
2018-07-10T21:20:36.448Z,13.93
2018-07-10T21:23:20.979Z,14.37
2018-07-10T21:25:59.039Z,13.57
2018-07-10T21:28:35.608Z,12.83
2018-07-10T21:32:09.818Z,13.73
2018-07-10T21:34:46.496Z,15.13
2018-07-10T21:37:19.196Z,15.00
2018-07-10T21:40:58.061Z,14.83
2018-07-10T21:43:40.633Z,13.57
2018-07-10T21:46:18.625Z,14.17
2018-07-10T21:48:59.011Z,14.37
2018-07-10T21:51:27.775Z,15.83
2018-07-10T21:53:56.662Z,13.87
2018-07-10T21:56:26.077Z,13.30
2018-07-10T21:58:54.396Z,14.67
2018-07-10T22:01:48.489Z,18.97
2018-07-10T22:04:18.795Z,21.70
2018-07-10T22:06:49.119Z,20.17
2018-07-10T22:09:18.249Z,19.80
2018-07-10T22:11:47.982Z,20.80
2018-07-10T22:14:17.701Z,21.20
2018-07-10T22:16:46.264Z,18.73
2018-07-10T22:19:21.492Z,20.13
2018-07-10T22:21:50.049Z,19.73
2018-07-10T22:24:18.647Z,20.67
2018-07-10T22:26:48.276Z,21.33
2018-07-10T22:29:17.571Z,19.00
2018-07-10T22:31:51.544Z,20.87
2018-07-10T22:34:20.143Z,20.07
2018-07-10T22:36:48.817Z,18.93
2018-07-10T22:39:17.646Z,16.90
2018-07-10T22:41:46.657Z,18.73
2018-07-10T22:44:15.222Z,18.20
2018-07-10T22:46:43.786Z,17.67
2018-07-10T22:49:14.322Z,18.67
2018-07-10T22:51:42.898Z,17.60
2018-07-10T22:54:11.594Z,17.63
2018-07-10T22:56:40.100Z,16.07
2018-07-10T22:59:08.621Z,16.73
2018-07-10T23:01:37.575Z,16.27
2018-07-10T23:04:06.398Z,16.30
2018-07-10T23:06:36.870Z,16.80
2018-07-10T23:09:06.455Z,16.97
2018-07-10T23:11:35.964Z,15.63
2018-07-10T23:14:04.501Z,16.63
2018-07-10T23:16:38.183Z,15.53
2018-07-10T23:19:07.279Z,14.67
2018-07-10T23:21:38.564Z,15.47
2018-07-10T23:24:08.475Z,13.30
2018-07-10T23:26:37.488Z,12.80
2018-07-10T23:29:06.029Z,12.50
2018-07-10T23:31:34.725Z,12.50
2018-07-10T23:34:19.243Z,11.03
2018-07-10T23:37:01.133Z,12.87
2018-07-10T23:39:41.922Z,13.47
2018-07-10T23:42:15.472Z,15.10
2018-07-10T23:44:46.497Z,14.00
2018-07-10T23:47:26.306Z,14.03
2018-07-10T23:50:02.849Z,14.17
2018-07-10T23:53:45.595Z,13.20
2018-07-10T23:56:14.430Z,13.87
2018-07-10T23:58:43.004Z,13.67
